createdAt,value
2022-10-29T00:16:14.392Z,5.80
2022-10-29T00:18:41.655Z,5.50
2022-10-29T00:21:15.442Z,5.50
2022-10-29T00:23:43.041Z,5.60
2022-10-29T00:26:11.077Z,5.60
2022-10-29T00:28:38.497Z,5.60
2022-10-29T00:31:18.046Z,5.50
2022-10-29T00:33:46.189Z,5.50
2022-10-29T00:36:16.815Z,5.40
2022-10-29T00:38:44.488Z,5.50
2022-10-29T00:41:16.143Z,5.50
2022-10-29T00:43:52.249Z,5.40
2022-10-29T00:46:35.198Z,5.50
2022-10-29T00:49:03.803Z,5.50
2022-10-29T00:51:32.942Z,5.60
2022-10-29T00:54:08.096Z,5.60
2022-10-29T00:59:26.263Z,5.70
2022-10-29T01:01:54.258Z,5.50
2022-10-29T01:04:23.434Z,5.60
2022-10-29T01:06:52.354Z,5.50
2022-10-29T01:09:19.495Z,5.60
2022-10-29T01:12:22.675Z,5.60
2022-10-29T01:15:20.986Z,5.70
2022-10-29T01:18:20.941Z,5.70
2022-10-29T01:20:54.035Z,5.60
2022-10-29T01:24:07.742Z,5.70
2022-10-29T01:27:39.347Z,5.60
2022-10-29T01:30:15.200Z,5.50
2022-10-29T01:33:06.492Z,5.50
2022-10-29T01:36:05.114Z,5.50
2022-10-29T01:38:57.894Z,5.40
2022-10-29T01:41:56.632Z,5.60
2022-10-29T01:45:02.694Z,5.20
2022-10-29T01:47:40.709Z,5.20
2022-10-29T01:50:14.290Z,5.10
2022-10-29T01:52:43.610Z,5.20
2022-10-29T02:00:18.684Z,5.00
2022-10-29T02:02:58.467Z,5.00
2022-10-29T02:05:45.833Z,5.10
2022-10-29T02:08:20.345Z,5.00
2022-10-29T02:11:15.767Z,4.90
2022-10-29T02:13:53.712Z,4.90
2022-10-29T02:16:25.009Z,4.90
2022-10-29T05:08:43.265Z,4.40
2022-10-29T05:13:38.575Z,4.30
2022-10-29T05:16:06.779Z,4.20
2022-10-29T05:18:33.903Z,4.20
2022-10-29T05:21:04.202Z,4.10
2022-10-29T05:23:32.012Z,4.20
2022-10-29T05:25:59.143Z,4.10
2022-10-29T05:28:29.429Z,4.10
2022-10-29T05:31:00.307Z,4.10
2022-10-29T05:33:27.497Z,4.10
2022-10-29T05:35:54.767Z,4.10
2022-10-29T05:38:21.900Z,4.10
2022-10-29T05:40:49.069Z,4.10
2022-10-29T05:43:17.807Z,4.10
2022-10-29T05:45:45.289Z,4.10
2022-10-29T05:48:14.334Z,4.10
2022-10-29T05:50:41.722Z,4.20
2022-10-29T05:53:14.286Z,4.30
2022-10-29T05:55:42.580Z,4.20
2022-10-29T05:58:14.509Z,4.20
2022-10-29T06:00:44.503Z,4.10
2022-10-29T06:03:18.044Z,4.20
2022-10-29T06:05:48.391Z,4.10
2022-10-29T06:08:16.159Z,4.10
2022-10-29T06:10:43.455Z,4.10
2022-10-29T06:13:22.410Z,4.80
2022-10-29T06:15:50.848Z,2.60
2022-10-29T06:18:18.120Z,4.10
2022-10-29T06:20:45.372Z,4.10
2022-10-29T06:23:12.596Z,4.10
2022-10-29T06:25:39.869Z,4.20
2022-10-29T06:28:11.071Z,4.30
2022-10-29T06:30:38.551Z,4.20
2022-10-29T06:33:05.765Z,4.30
2022-10-29T06:38:04.079Z,4.20
2022-10-29T06:40:33.572Z,4.20
2022-10-29T06:43:03.946Z,4.30
2022-10-29T06:45:34.121Z,4.30
2022-10-29T06:48:02.190Z,4.40
2022-10-29T06:50:29.561Z,4.40
2022-10-29T06:53:07.592Z,4.40
2022-10-29T06:55:35.543Z,4.50
2022-10-29T06:58:06.342Z,4.60
2022-10-29T07:00:35.098Z,4.60
2022-10-29T07:03:03.090Z,4.70
2022-10-29T07:05:31.017Z,4.80
2022-10-29T07:08:00.595Z,4.90
2022-10-29T07:10:31.321Z,5.00
2022-10-29T07:12:59.593Z,5.20
2022-10-29T07:15:30.834Z,5.30
2022-10-29T07:18:05.793Z,5.40
2022-10-29T07:20:36.860Z,5.50
2022-10-29T07:23:04.643Z,5.50
2022-10-29T07:25:39.520Z,5.60
2022-10-29T07:28:19.566Z,5.70
2022-10-29T07:30:47.469Z,5.70
2022-10-29T07:33:15.229Z,5.80
2022-10-29T07:35:43.789Z,5.90
2022-10-29T07:38:12.918Z,6.00
2022-10-29T07:40:47.657Z,6.00
2022-10-29T07:43:15.486Z,6.10
2022-10-29T07:45:48.347Z,6.20
2022-10-29T07:48:16.028Z,6.20
2022-10-29T07:50:43.283Z,6.30
2022-10-29T07:53:10.995Z,6.40
2022-10-29T07:55:38.756Z,6.50
2022-10-29T07:58:11.229Z,6.60
2022-10-29T08:00:41.265Z,6.70
2022-10-29T08:03:10.258Z,6.80
2022-10-29T08:05:37.461Z,6.80
2022-10-29T08:08:05.601Z,6.90
2022-10-29T08:10:35.866Z,7.00
2022-10-29T08:13:05.963Z,7.10
2022-10-29T08:15:38.594Z,7.20
2022-10-29T08:18:17.568Z,7.30
2022-10-29T08:20:45.376Z,7.30
2022-10-29T08:23:13.750Z,7.40
2022-10-29T08:25:42.233Z,7.60
2022-10-29T08:28:13.224Z,7.70
2022-10-29T08:30:42.276Z,7.80
2022-10-29T08:33:10.528Z,7.90
2022-10-29T08:35:37.688Z,8.10
2022-10-29T08:38:04.804Z,8.30
2022-10-29T08:40:46.468Z,8.50
2022-10-29T08:43:58.656Z,8.60
2022-10-29T08:46:46.314Z,8.70
2022-10-29T08:49:35.983Z,8.70
2022-10-29T08:52:14.753Z,8.80
2022-10-29T08:54:48.251Z,8.90
2022-10-29T08:57:19.242Z,8.90
2022-10-29T09:00:02.601Z,9.00
2022-10-29T09:02:29.960Z,9.10
2022-10-29T09:04:58.400Z,9.10
2022-10-29T09:08:12.812Z,9.30
2022-10-29T09:11:07.751Z,9.40
2022-10-29T09:13:51.550Z,9.50
2022-10-29T09:16:41.645Z,9.60
2022-10-29T09:19:26.796Z,9.60
2022-10-29T09:22:17.536Z,9.70
2022-10-29T09:25:08.257Z,9.80
2022-10-29T09:28:13.481Z,9.90
2022-10-29T09:31:42.063Z,10.10
2022-10-29T09:34:34.421Z,10.10
2022-10-29T09:37:02.467Z,10.20
2022-10-29T09:39:38.879Z,10.30
2022-10-29T09:42:22.026Z,10.40
2022-10-29T09:45:03.134Z,10.50
2022-10-29T09:48:25.152Z,10.50
2022-10-29T09:51:19.550Z,10.60
2022-10-29T09:53:46.835Z,10.80
2022-10-29T09:56:14.076Z,11.00
2022-10-29T09:58:52.345Z,11.10
2022-10-29T10:01:19.659Z,11.10
2022-10-29T10:03:55.628Z,11.10
2022-10-29T10:06:22.807Z,11.20
2022-10-29T10:09:06.420Z,11.30
2022-10-29T10:11:42.224Z,11.40
2022-10-29T10:14:22.643Z,11.50
2022-10-29T10:17:00.117Z,11.50
2022-10-29T10:19:31.505Z,11.60
2022-10-29T10:22:02.169Z,11.70
2022-10-29T10:24:35.174Z,11.80
2022-10-29T10:27:30.325Z,11.90
2022-10-29T10:30:14.717Z,12.00
2022-10-29T10:32:42.157Z,12.10
2022-10-29T10:35:30.921Z,12.20
2022-10-29T10:37:58.618Z,12.20
2022-10-29T10:40:26.490Z,12.30
2022-10-29T10:42:55.786Z,12.40
2022-10-29T10:45:40.631Z,12.50
2022-10-29T10:48:16.205Z,12.50
2022-10-29T10:50:43.537Z,12.50
2022-10-29T10:53:22.383Z,12.50
2022-10-29T10:55:56.666Z,12.60
2022-10-29T10:58:45.424Z,12.70
2022-10-29T11:01:43.713Z,12.80
2022-10-29T11:04:34.535Z,12.90
2022-10-29T11:07:08.281Z,13.00
2022-10-29T11:09:46.670Z,13.10
2022-10-29T11:12:44.882Z,13.20
2022-10-29T11:15:41.086Z,13.30
2022-10-29T11:18:41.315Z,13.70
2022-10-29T11:21:21.317Z,14.60
2022-10-29T11:24:05.402Z,15.90
2022-10-29T11:26:41.615Z,16.70
2022-10-29T11:29:42.170Z,17.70
2022-10-29T11:32:15.205Z,18.40
2022-10-29T11:35:11.268Z,19.00
2022-10-29T11:37:53.784Z,19.70
2022-10-29T11:41:09.716Z,20.30
2022-10-29T11:43:37.010Z,20.70
2022-10-29T11:46:31.688Z,21.00
2022-10-29T11:49:24.515Z,21.00
2022-10-29T11:52:22.561Z,20.80
2022-10-29T11:54:59.730Z,21.90
2022-10-29T11:57:47.831Z,21.10
2022-10-29T12:00:23.742Z,21.30
2022-10-29T12:03:12.395Z,21.00
2022-10-29T12:06:15.058Z,20.80
2022-10-29T12:09:37.448Z,20.70
2022-10-29T12:12:40.509Z,20.50
2022-10-29T12:15:32.026Z,20.70
2022-10-29T12:18:25.994Z,21.10
2022-10-29T12:21:26.701Z,21.20
2022-10-29T12:23:53.939Z,21.10
2022-10-29T12:26:36.140Z,21.20
2022-10-29T12:29:12.643Z,21.30
2022-10-29T12:31:44.599Z,21.30
2022-10-29T12:34:47.875Z,21.50
2022-10-29T12:37:48.171Z,21.20
2022-10-29T12:40:40.618Z,20.20
2022-10-29T12:43:29.079Z,19.30
2022-10-29T12:46:31.565Z,18.70
2022-10-29T12:49:40.140Z,17.90
2022-10-29T12:52:50.087Z,17.50
2022-10-29T12:55:23.528Z,17.00
2022-10-29T12:57:51.109Z,16.60
2022-10-29T13:00:45.899Z,16.40
2022-10-29T13:03:58.568Z,16.20
2022-10-29T13:06:45.330Z,16.00
2022-10-29T13:09:29.720Z,15.80
2022-10-29T13:12:13.687Z,15.60
2022-10-29T13:14:54.315Z,15.50
2022-10-29T13:17:41.901Z,15.40
2022-10-29T13:20:20.885Z,15.30
2022-10-29T13:22:52.421Z,15.20
2022-10-29T13:25:37.932Z,15.10
2022-10-29T13:28:08.075Z,15.00
2022-10-29T13:30:39.495Z,15.00
2022-10-29T13:33:28.510Z,15.00
2022-10-29T13:36:25.752Z,15.00
2022-10-29T13:39:05.749Z,15.00
2022-10-29T13:41:46.406Z,15.00
2022-10-29T13:44:29.183Z,15.10
2022-10-29T13:47:04.530Z,15.10
2022-10-29T13:49:42.374Z,15.10
2022-10-29T13:52:09.747Z,15.10
2022-10-29T13:55:06.366Z,15.10
2022-10-29T13:57:46.874Z,15.10
2022-10-29T14:00:14.203Z,15.10
2022-10-29T14:02:47.033Z,15.20
2022-10-29T14:05:40.436Z,15.20
2022-10-29T14:08:13.721Z,15.20
2022-10-29T14:10:41.059Z,15.20
2022-10-29T14:13:14.023Z,15.10
2022-10-29T14:16:06.960Z,15.20
2022-10-29T14:18:37.774Z,15.10
2022-10-29T14:21:15.502Z,15.10
2022-10-29T14:24:02.011Z,15.00
2022-10-29T14:26:33.434Z,15.00
2022-10-29T14:29:23.805Z,15.00
2022-10-29T14:32:11.523Z,14.90
2022-10-29T14:34:39.476Z,14.90
2022-10-29T14:37:37.363Z,14.90
2022-10-29T14:40:28.229Z,14.80
2022-10-29T14:42:57.477Z,14.80
2022-10-29T14:45:31.059Z,14.70
2022-10-29T14:48:02.080Z,14.60
2022-10-29T14:50:31.404Z,14.60
2022-10-29T14:53:05.533Z,14.50
2022-10-29T14:55:40.465Z,14.50
2022-10-29T14:58:16.509Z,14.50
2022-10-29T15:01:07.262Z,14.40
2022-10-29T15:03:36.261Z,14.30
2022-10-29T15:06:19.549Z,14.20
2022-10-29T15:09:02.312Z,14.20
2022-10-29T15:14:36.290Z,14.10
2022-10-29T15:17:16.479Z,14.10
2022-10-29T15:19:46.789Z,14.00
2022-10-29T15:22:37.381Z,14.00
2022-10-29T15:25:15.599Z,13.90
2022-10-29T15:27:42.872Z,13.90
2022-10-29T15:30:28.306Z,13.80
2022-10-29T15:33:00.857Z,13.70
2022-10-29T15:35:28.752Z,13.60
2022-10-29T15:37:56.559Z,13.50
2022-10-29T15:40:25.812Z,13.40
2022-10-29T15:42:54.813Z,13.30
2022-10-29T15:45:26.515Z,13.20
2022-10-29T15:48:17.865Z,13.20
2022-10-29T15:50:46.129Z,13.10
2022-10-29T15:53:16.729Z,13.00
2022-10-29T15:55:44.593Z,12.90
2022-10-29T15:58:19.558Z,12.80
2022-10-29T16:00:46.845Z,12.70
2022-10-29T16:03:21.001Z,12.60
2022-10-29T16:05:59.225Z,12.50
2022-10-29T16:08:40.822Z,12.50
2022-10-29T16:11:16.788Z,12.40
2022-10-29T16:13:43.984Z,12.30
2022-10-29T16:16:15.132Z,12.30
2022-10-29T16:18:42.237Z,12.20
2022-10-29T16:21:14.319Z,12.10
2022-10-29T16:23:41.874Z,11.90
2022-10-29T16:26:21.309Z,11.80
2022-10-29T16:28:48.616Z,11.80
2022-10-29T16:31:28.863Z,11.60
2022-10-29T16:34:03.059Z,11.60
2022-10-29T16:36:30.420Z,11.50
2022-10-29T16:38:57.800Z,11.50
2022-10-29T16:41:25.019Z,11.40
2022-10-29T16:43:52.291Z,11.30
2022-10-29T16:48:46.941Z,11.20
2022-10-29T16:51:14.219Z,11.10
2022-10-29T16:53:41.321Z,11.00
2022-10-29T16:56:08.740Z,10.90
2022-10-29T16:58:35.995Z,10.90
2022-10-29T17:01:08.191Z,10.80
2022-10-29T17:03:35.977Z,10.70
2022-10-29T17:06:09.777Z,10.70
2022-10-29T17:08:38.183Z,10.60
2022-10-29T17:11:07.261Z,10.60
2022-10-29T17:13:34.990Z,10.60
2022-10-29T17:16:12.236Z,10.50
2022-10-29T17:18:39.457Z,10.50
2022-10-29T17:21:06.676Z,10.40
2022-10-29T17:23:34.272Z,10.50
2022-10-29T17:26:01.432Z,10.30
2022-10-29T17:28:28.922Z,10.40
2022-10-29T17:30:56.109Z,10.40
2022-10-29T17:33:23.336Z,10.40
2022-10-29T17:35:59.940Z,10.50
2022-10-29T17:38:27.525Z,10.40
2022-10-29T17:40:54.623Z,10.50
2022-10-29T17:43:22.166Z,10.40
2022-10-29T17:45:49.377Z,10.50
2022-10-29T17:48:18.749Z,10.50
2022-10-29T17:50:56.901Z,10.40
2022-10-29T17:53:26.607Z,10.30
2022-10-29T17:55:58.240Z,10.20
2022-10-29T17:58:26.298Z,10.20
2022-10-29T18:47:42.178Z,9.50
2022-10-29T18:50:09.563Z,9.40
2022-10-29T18:52:36.770Z,9.20
2022-10-29T18:55:04.285Z,9.20
2022-10-29T18:57:31.557Z,9.10
2022-10-29T18:59:58.674Z,9.10
2022-10-29T19:02:25.971Z,9.10
2022-10-29T19:04:53.197Z,9.00
2022-10-29T19:07:20.369Z,9.10
2022-10-29T19:09:48.208Z,9.10
2022-10-29T19:12:15.399Z,9.00
2022-10-29T19:14:42.524Z,9.00
2022-10-29T19:17:09.716Z,8.90
2022-10-29T19:19:36.966Z,8.90
2022-10-29T19:22:04.087Z,8.80
2022-10-29T19:34:22.458Z,8.70
2022-10-29T19:36:49.610Z,8.60
2022-10-29T19:39:16.875Z,8.60
2022-10-29T19:41:44.109Z,8.60
2022-10-29T19:44:11.413Z,8.70
2022-10-29T19:46:38.609Z,8.70
2022-10-29T19:49:05.991Z,8.60
2022-10-29T19:51:33.203Z,8.60
2022-10-29T19:54:00.608Z,8.60
2022-10-29T19:56:27.956Z,8.50
2022-10-29T19:58:55.152Z,8.60
2022-10-29T20:01:22.636Z,8.60
2022-10-29T20:03:50.088Z,8.60
2022-10-29T20:06:17.655Z,8.50
2022-10-29T20:11:12.754Z,8.40
2022-10-29T20:13:40.148Z,8.40
2022-10-29T20:16:18.000Z,8.40
2022-10-29T20:18:46.210Z,8.40
2022-10-29T20:21:14.328Z,8.40
2022-10-29T20:23:42.360Z,8.50
2022-10-29T20:26:09.737Z,8.50
2022-10-29T20:28:37.611Z,8.40
2022-10-29T20:33:53.958Z,8.30
2022-10-29T20:36:22.560Z,8.30
2022-10-29T20:38:51.848Z,8.30
2022-10-29T20:41:20.561Z,8.20
2022-10-29T20:43:53.980Z,8.20
2022-10-29T20:46:23.145Z,8.30
2022-10-29T20:48:50.860Z,8.20
2022-10-29T20:51:18.483Z,8.10
2022-10-29T20:53:45.628Z,8.20
2022-10-29T20:56:16.018Z,8.10
2022-10-29T20:58:44.433Z,8.00
2022-10-29T21:01:16.847Z,8.00
2022-10-29T21:03:45.350Z,8.00
2022-10-29T21:06:17.034Z,8.00
2022-10-29T21:08:47.178Z,7.90
2022-10-29T21:11:16.206Z,7.90
2022-10-29T21:13:43.867Z,7.90
2022-10-29T21:16:28.870Z,7.90
2022-10-29T21:18:59.799Z,7.80
2022-10-29T21:21:29.313Z,7.70
2022-10-29T21:23:59.643Z,7.70
2022-10-29T21:26:28.543Z,7.60
2022-10-29T21:28:55.917Z,7.60
2022-10-29T21:31:24.301Z,7.60
2022-10-29T21:33:54.208Z,7.60
2022-10-29T21:36:22.570Z,7.60
2022-10-29T21:38:50.265Z,7.60
2022-10-29T21:41:17.751Z,7.60
2022-10-29T21:43:45.142Z,7.60
2022-10-29T21:46:12.488Z,7.50
2022-10-29T21:48:39.659Z,7.50
2022-10-29T21:51:11.294Z,7.50
2022-10-29T21:53:38.605Z,7.50
2022-10-29T21:56:09.896Z,7.50
2022-10-29T21:58:37.078Z,7.60
2022-10-29T22:01:14.109Z,7.50
2022-10-29T22:03:44.631Z,7.50
2022-10-29T22:06:16.910Z,7.40
2022-10-29T22:08:46.193Z,7.30
2022-10-29T22:11:15.413Z,7.30
2022-10-29T22:13:42.789Z,7.30
2022-10-29T22:16:11.386Z,7.30
2022-10-29T22:18:39.999Z,7.30
2022-10-29T22:21:20.083Z,7.30
2022-10-29T22:23:53.907Z,7.30
2022-10-29T22:26:25.242Z,7.20
2022-10-29T22:28:52.733Z,7.20
2022-10-29T22:31:22.064Z,7.30
2022-10-29T22:33:49.519Z,7.20
2022-10-29T22:36:23.333Z,7.10
2022-10-29T22:38:59.972Z,7.10
2022-10-29T22:41:29.491Z,7.00
2022-10-29T22:43:58.144Z,7.00
2022-10-29T22:46:27.335Z,7.00
2022-10-29T22:48:55.148Z,7.00
2022-10-29T22:51:26.361Z,7.00
2022-10-29T22:53:54.526Z,6.90
2022-10-29T22:56:29.327Z,6.90
2022-10-29T22:58:57.284Z,6.90
2022-10-29T23:01:28.568Z,6.80
2022-10-29T23:03:57.621Z,6.80
2022-10-29T23:06:26.678Z,6.80
2022-10-29T23:08:57.436Z,6.70
2022-10-29T23:11:28.379Z,6.70
2022-10-29T23:14:00.095Z,6.70
2022-10-29T23:16:31.319Z,6.70
2022-10-29T23:19:02.903Z,6.70
2022-10-29T23:21:30.809Z,6.80
2022-10-29T23:23:58.319Z,6.90
2022-10-29T23:26:26.389Z,6.90
2022-10-29T23:28:53.764Z,6.80
2022-10-29T23:31:25.399Z,6.80
2022-10-29T23:33:56.094Z,6.90
2022-10-29T23:36:25.683Z,6.80
2022-10-29T23:39:01.278Z,6.80
2022-10-29T23:41:31.327Z,6.80
2022-10-29T23:43:59.147Z,6.80
2022-10-29T23:46:26.727Z,6.80
2022-10-29T23:48:53.971Z,6.70
2022-10-29T23:51:21.274Z,6.70
2022-10-29T23:53:50.499Z,6.60
2022-10-29T23:56:20.529Z,6.60
2022-10-29T23:58:47.806Z,6.60
